Latest Weather Observations for Wilsons Promontory

IDV60801

Issued at 8:32 pm EDT Friday 20 January 2017 (issued every 30 minutes, with the page automatically refreshed every 10 minutes)

About weather observations | Map of weather stations | Latest weather observations for VIC | Other Formats
Station Details ID: 085096 Name: WILSONS PROMONTORY LIGHTHOUSE Lat: -39.13 Lon: 146.42 Height: 95.0 m
Data from the previous 72 hours. | See also: Recent months at Wilsons Promontory
Date/Time
EDT
Temp
°C
App
Temp
°C
Dew
Point
°C
Rel
Hum
%
Delta-T
°C
Wind Press
QNH
hPa
Press
MSL
hPa
Rain since
9am
mm
Dir  Spd
km/h
Gust
km/h
Spd
kts
Gust
kts
20/08:30pm 15.5 1.0 11.1 75 2.4 WSW 78 96 42 52 1002.5 - 1.6
20/08:29pm 15.6 1.2 11.4 76 2.3 WSW 78 96 42 52 1002.6 - 1.6
20/08:27pm 15.7 -0.4 11.3 75 2.4 WSW 87 96 47 52 1002.4 - 1.6
20/08:00pm 15.9 3.5 11.1 73 2.6 W 67 89 36 48 1002.2 - 1.6
20/07:30pm 16.1 3.4 11.3 73 2.6 WSW 69 89 37 48 1001.6 - 1.6
20/07:00pm 16.2 2.3 11.6 74 2.5 WSW 76 96 41 52 1001.0 - 1.6
20/06:30pm 16.0 0.8 11.8 76 2.3 WSW 83 106 45 57 999.9 - 1.6
20/06:06pm 16.0 0.8 11.8 76 2.3 WSW 83 102 45 55 999.3 - 1.6
20/06:03pm 16.1 -0.3 11.5 74 2.5 WSW 89 98 48 53 999.0 - 1.6
20/06:01pm 16.2 3.7 11.8 75 2.4 W 69 102 37 55 999.1 - 1.6
20/06:00pm 16.3 4.2 12.1 76 2.3 W 67 102 36 55 999.3 999.1 1.6
20/05:58pm 16.4 4.5 12.6 78 2.1 W 67 102 36 55 999.4 - 1.6
20/05:30pm 16.5 0.7 12.3 76 2.3 WSW 87 106 47 57 998.5 - 1.6
20/05:28pm 16.4 -1.0 12.0 75 2.4 WSW 95 106 51 57 998.0 - 1.6
20/05:00pm 16.7 3.4 12.5 76 2.3 WSW 74 96 40 52 997.6 - 1.6
20/04:30pm 16.4 4.3 13.1 81 1.8 W 69 85 37 46 997.3 - 1.6
20/04:00pm 16.3 5.8 13.4 83 1.6 W 61 83 33 45 996.6 - 1.6
20/03:30pm 16.4 6.3 13.5 83 1.6 W 59 78 32 42 996.0 - 1.6
20/03:00pm 16.3 6.7 14.0 86 1.3 W 57 82 31 44 995.6 995.3 1.6
20/02:34pm 16.2 4.0 14.6 90 0.9 WSW 72 91 39 49 995.0 - 1.6
20/02:30pm 15.9 2.8 14.3 90 0.9 WSW 76 91 41 49 995.1 - 1.6
20/02:23pm 15.4 0.1 13.9 91 0.8 WSW 87 106 47 57 994.5 - 1.6
20/02:22pm 15.5 -0.1 14.0 91 0.9 WSW 89 106 48 57 994.6 - 1.6
20/02:09pm 15.0 -1.6 13.4 90 0.9 WSW 93 119 50 64 992.5 - 1.6
20/02:01pm 15.8 -0.9 14.2 90 0.9 WSW 95 106 51 57 993.1 - 1.6
20/02:00pm 16.0 4.7 14.4 90 0.9 W 67 98 36 53 993.3 - 1.6
20/01:30pm 16.1 6.0 14.5 90 0.9 W 61 83 33 45 993.2 - 1.6
20/01:00pm 16.1 5.6 14.6 91 0.9 W 63 83 34 45 993.0 - 1.6
20/12:30pm 15.8 6.9 14.3 91 0.9 W 54 80 29 43 992.5 - 1.6
20/12:00pm 16.5 9.9 15.4 93 0.6 W 44 65 24 35 992.2 992.0 1.6
20/11:30am 16.6 11.8 15.5 93 0.6 W 35 56 19 30 991.9 - 1.2
20/11:00am 16.6 12.3 15.5 93 0.6 W 32 50 17 27 991.9 - 1.2
20/10:37am 16.4 12.1 15.4 94 0.6 W 32 50 17 27 991.7 - 1.2
20/10:30am 16.3 11.4 15.3 94 0.6 W 35 50 19 27 991.7 - 1.2
20/10:18am 16.2 11.8 15.2 94 0.6 W 32 50 17 27 991.7 - 1.2
20/10:00am 16.5 12.6 15.5 94 0.6 W 30 41 16 22 991.8 - 1.0
20/09:30am 16.5 12.6 15.5 94 0.6 WSW 30 50 16 27 991.8 - 0.4
20/09:26am 16.5 13.0 15.5 94 0.6 WSW 28 50 15 27 991.5 - 0.2
20/09:00am 16.6 16.4 15.6 94 0.6 NNW 11 17 6 9 991.9 991.7 13.6
20/08:30am 16.6 14.8 15.6 94 0.6 N 19 28 10 15 992.0 - 13.2
20/08:00am 16.5 13.0 15.5 94 0.6 NNE 28 35 15 19 991.3 - 10.0
20/07:30am 16.5 12.0 15.5 94 0.6 NNE 33 41 18 22 990.9 - 8.8
20/07:00am 16.6 12.4 15.6 94 0.6 NE 32 44 17 24 991.5 - 8.8
20/06:30am 16.7 14.0 15.6 93 0.6 NE 24 32 13 17 992.7 - 8.6
20/06:00am 16.7 14.7 15.4 92 0.8 NE 20 26 11 14 994.0 993.8 7.4
20/05:59am 16.7 14.7 15.4 92 0.8 NE 20 26 11 14 994.1 - 7.4
20/05:30am 16.8 17.4 15.3 91 0.9 ENE 6 11 3 6 996.1 - 5.4
20/05:00am 17.0 18.1 15.5 91 0.9 N 4 9 2 5 997.8 - 3.6
20/04:30am 16.9 16.1 15.2 90 1.0 NE 13 15 7 8 997.9 - 2.4
20/04:00am 17.2 16.1 15.2 88 1.2 NNE 15 19 8 10 998.9 - 0.4
20/03:30am 17.4 16.7 15.4 88 1.2 NE 13 15 7 8 999.4 - 0.0
20/03:00am 17.5 16.5 15.5 88 1.2 ENE 15 32 8 17 1000.0 999.8 0.0
20/02:30am 17.6 15.3 15.8 89 1.1 NNE 22 30 12 16 1000.1 - 0.0
20/02:00am 17.4 12.6 15.6 89 1.1 NNE 35 46 19 25 998.6 - 0.0
20/01:30am 17.2 12.3 15.4 89 1.1 NE 35 43 19 23 999.2 - 0.0
20/01:00am 17.2 11.5 15.2 88 1.2 NE 39 46 21 25 999.8 - 0.0
20/12:30am 17.2 10.7 15.0 87 1.3 NE 43 50 23 27 1000.3 - 0.0
20/12:00am 17.2 10.0 14.7 85 1.5 ENE 46 56 25 30 1001.2 1001.0 0.0
 
Date/Time
EDT
Temp
°C
App
Temp
°C
Dew
Point
°C
Rel
Hum
%
Delta-T
°C
Wind Press
QNH
hPa
Press
MSL
hPa
Rain since
9am
mm
Dir  Spd
km/h
Gust
km/h
Spd
kts
Gust
kts
19/11:30pm 17.2 9.9 14.5 84 1.6 ENE 46 56 25 30 1002.2 - 0.0
19/11:00pm 17.2 9.5 14.3 83 1.7 ENE 48 61 26 33 1002.9 - 0.0
19/10:30pm 17.1 10.2 14.6 85 1.4 NE 44 56 24 30 1004.3 - 0.0
19/10:00pm 16.8 8.6 14.1 84 1.5 ENE 50 59 27 32 1005.0 - 0.0
19/09:30pm 16.8 7.4 13.9 83 1.7 ENE 56 69 30 37 1005.3 - 0.0
19/09:00pm 16.7 7.5 13.4 81 1.9 ENE 54 65 29 35 1006.2 1005.9 0.0
19/08:30pm 16.8 6.6 13.3 80 2.0 ENE 59 67 32 36 1006.9 - 0.0
19/08:00pm 16.7 6.4 12.8 78 2.2 ENE 59 70 32 38 1007.3 - 0.0
19/07:30pm 16.9 8.0 13.0 78 2.2 ENE 52 61 28 33 1008.0 - 0.0
19/07:00pm 16.8 6.9 12.3 75 2.5 ENE 56 67 30 36 1007.8 - 0.0
19/06:30pm 16.8 7.2 12.1 74 2.6 ENE 54 63 29 34 1008.1 - 0.0
19/06:00pm 17.2 8.0 12.3 73 2.7 ENE 52 61 28 33 1008.7 1008.5 0.0
19/05:30pm 17.2 9.2 12.3 73 2.7 ENE 46 57 25 31 1009.3 - 0.0
19/05:00pm 17.1 7.1 12.0 72 2.8 ENE 56 67 30 36 1009.3 - 0.0
19/04:30pm 17.3 9.0 12.6 74 2.6 ENE 48 61 26 33 1009.6 - 0.0
19/04:00pm 17.3 10.0 12.8 75 2.5 NE 43 52 23 28 1010.0 - 0.0
19/03:30pm 17.3 9.6 12.2 72 2.8 NE 44 54 24 29 1010.5 - 0.0
19/03:00pm 17.5 10.0 12.0 70 3.0 NE 43 52 23 28 1011.1 1010.9 0.0
19/02:00pm 17.6 10.4 11.8 69 3.2 NE 41 48 22 26 1011.8 - 0.0
19/01:30pm 17.6 9.9 11.6 68 3.3 NE 43 48 23 26 1012.2 - 0.0
19/01:00pm 17.6 10.3 11.4 67 3.4 ENE 41 50 22 27 1012.4 - 0.0
19/12:30pm 18.1 12.4 11.9 67 3.4 NE 33 39 18 21 1013.1 - 0.0
19/12:00pm 17.7 12.3 11.0 65 3.6 NE 30 37 16 20 1013.4 1013.2 0.0
19/11:30am 18.0 12.4 11.6 66 3.5 NE 32 39 17 21 1013.4 - 0.0
19/11:00am 18.2 13.6 11.0 63 3.9 NE 26 32 14 17 1013.7 - 0.0
19/10:30am 17.9 13.7 11.2 65 3.6 NE 24 35 13 19 1014.1 - 0.0
19/10:00am 17.9 13.7 11.2 65 3.6 NE 24 32 13 17 1014.4 - 0.0
19/09:30am 18.2 14.0 11.0 63 3.9 ENE 24 30 13 16 1014.6 - 0.0
19/09:00am 18.0 14.2 9.9 59 4.3 NE 20 26 11 14 1014.8 1014.6 0.0
19/08:30am 18.2 15.7 11.0 63 3.9 ENE 15 22 8 12 1014.8 - 0.0
19/08:00am 17.4 14.7 10.5 64 3.7 ENE 15 19 8 10 1014.7 - 0.0
19/07:30am 16.7 14.7 10.3 66 3.4 ENE 11 15 6 8 1014.7 - 0.0
19/07:00am 16.1 14.8 10.0 67 3.2 NE 7 9 4 5 1014.7 - 0.0
19/06:30am 14.7 13.5 9.5 71 2.7 ENE 6 7 3 4 1014.7 - 0.0
19/06:00am 14.4 12.9 9.2 71 2.7 E 7 9 4 5 1014.5 1014.3 0.0
19/05:30am 14.3 13.3 8.9 70 2.8 ESE 4 7 2 4 1014.2 - 0.0
19/05:00am 14.2 12.2 8.6 69 2.8 E 9 15 5 8 1014.1 - 0.0
19/04:30am 14.5 12.6 8.9 69 2.9 SSE 9 13 5 7 1014.1 - 0.0
19/04:00am 14.5 13.0 8.5 67 3.0 SE 6 9 3 5 1014.4 - 0.0
19/03:30am 14.7 11.9 8.4 66 3.2 SSE 13 17 7 9 1014.5 - 0.0
19/03:00am 14.8 11.7 8.7 67 3.1 S 15 19 8 10 1014.6 1014.4 0.0
19/02:30am 15.0 13.0 8.5 65 3.3 SW 9 17 5 9 1014.8 - 0.0
19/02:00am 15.1 13.1 8.6 65 3.3 WSW 9 17 5 9 1015.1 - 0.0
19/01:30am 15.2 13.3 9.1 67 3.1 WNW 9 15 5 8 1015.0 - 0.0
19/01:00am 15.2 12.7 8.4 64 3.4 WSW 11 24 6 13 1015.7 - 0.0
19/12:30am 15.2 12.9 8.9 66 3.2 SW 11 22 6 12 1015.9 - 0.0
19/12:00am 15.3 12.2 8.8 65 3.3 WNW 15 30 8 16 1015.7 1015.5 0.0
 
Date/Time
EDT
Temp
°C
App
Temp
°C
Dew
Point
°C
Rel
Hum
%
Delta-T
°C
Wind Press
QNH
hPa
Press
MSL
hPa
Rain since
9am
mm
Dir  Spd
km/h
Gust
km/h
Spd
kts
Gust
kts
18/11:30pm 15.3 12.6 8.8 65 3.3 SW 13 37 7 20 1016.3 - 0.0
18/11:00pm 15.3 9.6 8.5 64 3.5 SW 28 44 15 24 1016.4 - 0.0
18/10:30pm 15.2 8.5 9.8 70 2.8 WSW 35 41 19 22 1016.0 - 0.0
18/10:00pm 15.1 6.1 9.0 67 3.1 WSW 46 56 25 30 1015.7 - 0.0
18/09:30pm 15.0 4.2 9.1 68 3.0 WSW 56 63 30 34 1015.4 - 0.0
18/09:00pm 15.1 5.3 8.8 66 3.2 WSW 50 59 27 32 1015.4 1015.2 0.0
18/08:30pm 15.1 5.9 9.5 69 2.9 WSW 48 59 26 32 1015.0 - 0.0
18/08:00pm 15.4 7.1 9.3 67 3.2 W 43 59 23 32 1014.7 - 0.0
18/07:56pm 15.4 7.4 9.1 66 3.2 W 41 59 22 32 1014.8 - 0.0
18/07:30pm 15.6 7.3 9.5 67 3.2 W 43 59 23 32 1014.3 - 0.0
18/07:27pm 15.6 7.7 9.5 67 3.2 W 41 59 22 32 1014.4 - 0.0
18/07:00pm 15.8 7.2 9.0 64 3.5 WSW 44 59 24 32 1014.5 - 0.0
18/06:30pm 16.0 7.4 8.7 62 3.7 WSW 44 57 24 31 1014.4 - 0.0
18/06:02pm 16.2 7.2 8.9 62 3.8 W 46 65 25 35 1014.3 - 0.0
18/06:00pm 15.9 6.1 8.6 62 3.7 WSW 50 65 27 35 1014.3 1014.1 0.0
18/05:36pm 15.9 6.7 7.9 59 4.0 WSW 46 65 25 35 1014.1 - 0.0
18/05:30pm 15.9 5.5 7.7 58 4.1 WSW 52 65 28 35 1014.0 - 0.0
18/05:00pm 16.2 7.6 8.2 59 4.1 W 43 61 23 33 1013.9 - 0.0
18/04:32pm 15.9 7.7 8.4 61 3.8 W 41 61 22 33 1013.8 - 0.0
18/04:30pm 16.3 8.2 8.8 61 3.9 W 41 57 22 31 1013.9 - 0.0
18/04:00pm 17.1 8.6 8.5 57 4.4 W 43 61 23 33 1014.0 - 0.0
18/03:59pm 17.3 8.8 8.7 57 4.4 W 43 61 23 33 1014.1 - 0.0
18/03:30pm 16.4 7.7 7.9 57 4.3 W 43 57 23 31 1013.8 - 0.0
18/03:14pm 16.4 7.1 9.1 62 3.8 WSW 48 67 26 36 1014.0 - 0.0
18/03:00pm 15.9 5.2 7.9 59 4.0 WSW 54 67 29 36 1013.7 1013.5 0.0
18/02:37pm 16.1 5.7 7.8 58 4.2 WSW 52 70 28 38 1013.5 - 0.0
18/02:30pm 16.0 5.1 8.7 62 3.7 WSW 56 70 30 38 1013.4 - 0.0
18/02:00pm 15.8 4.5 7.8 59 4.0 WSW 57 72 31 39 1013.3 - 0.0
18/01:30pm 16.5 6.9 8.0 57 4.3 W 48 69 26 37 1013.4 - 0.0
18/01:22pm 16.0 6.6 7.0 55 4.5 W 46 69 25 37 1013.1 - 0.0
18/01:18pm 16.2 7.5 7.9 58 4.2 W 43 74 23 40 1013.0 - 0.0
18/01:00pm 16.1 3.1 7.3 56 4.4 WSW 65 74 35 40 1012.8 - 0.0
18/12:30pm 16.0 3.1 7.5 57 4.3 WSW 65 76 35 41 1012.6 - 0.0
18/12:21pm 15.9 2.2 7.4 57 4.2 WSW 69 76 37 41 1012.2 - 0.0
18/12:19pm 16.0 5.9 7.5 57 4.3 WSW 50 76 27 41 1012.5 - 0.0
18/12:18pm 16.1 6.4 7.3 56 4.4 W 48 76 26 41 1012.5 - 0.0
18/12:00pm 15.7 2.6 8.2 61 3.8 WSW 67 76 36 41 1012.0 1011.8 0.0
18/11:30am 15.9 1.7 7.7 58 4.1 WSW 72 80 39 43 1011.5 - 0.0
18/11:00am 15.9 1.0 8.2 60 3.9 WSW 76 83 41 45 1010.7 - 0.0
18/10:30am 15.4 2.2 10.2 71 2.7 WSW 70 80 38 43 1010.7 - 0.0
18/10:00am 16.0 2.7 9.7 66 3.3 WSW 70 80 38 43 1010.2 - 0.0
18/09:30am 16.3 4.1 9.0 62 3.8 WSW 63 82 34 44 1009.9 - 0.0
18/09:03am 16.0 3.7 8.5 61 3.8 WSW 63 82 34 44 1009.5 - 0.0
18/09:00am 15.9 3.2 8.6 62 3.7 WSW 65 82 35 44 1009.6 1009.4 0.6
18/08:52am 15.7 2.8 9.1 65 3.4 WSW 67 85 36 46 1009.4 - 0.6
18/08:30am 15.7 2.9 9.4 66 3.3 WSW 67 80 36 43 1009.2 - 0.6
18/08:00am 15.5 3.2 10.1 70 2.8 WSW 65 82 35 44 1009.1 - 0.6
18/07:30am 15.4 1.9 9.1 66 3.2 WSW 70 82 38 44 1008.3 - 0.6
18/07:00am 15.5 1.4 9.6 68 3.1 WSW 74 82 40 44 1007.5 - 0.6
18/06:30am 15.4 1.8 10.0 70 2.8 WSW 72 83 39 45 1007.1 - 0.6
18/06:00am 15.6 0.9 10.4 71 2.8 WSW 78 89 42 48 1006.7 1006.4 0.6
18/05:30am 15.7 1.9 11.9 78 2.1 WSW 76 85 41 46 1006.0 - 0.6
18/05:23am 15.7 2.2 13.0 84 1.5 WSW 76 85 41 46 1006.3 - 0.6
18/05:13am 15.9 6.2 13.7 87 1.2 WSW 57 76 31 41 1006.5 - 0.6
18/05:08am 15.6 4.7 13.4 87 1.2 WSW 63 76 34 41 1006.2 - 0.6
18/05:05am 15.6 9.3 13.4 87 1.2 W 39 65 21 35 1005.9 - 0.6
18/05:00am 15.8 9.5 13.6 87 1.2 W 39 52 21 28 1006.2 - 0.6
18/04:43am 15.6 9.6 13.4 87 1.2 W 37 56 20 30 1006.2 - 0.6
18/04:30am 15.7 9.7 13.4 86 1.3 W 37 48 20 26 1005.8 - 0.6
18/04:21am 15.4 9.4 13.2 87 1.2 W 37 54 20 29 1005.3 - 0.6
18/04:00am 16.1 9.1 13.8 86 1.3 W 43 65 23 35 1007.4 - 0.4
18/03:30am 16.5 9.1 13.0 80 2.0 W 44 70 24 38 1006.9 - 0.0
18/03:15am 17.1 10.8 13.6 80 2.0 W 39 59 21 32 1006.8 - 0.0
18/03:00am 17.5 9.7 14.0 80 2.0 W 48 61 26 33 1007.1 1006.8 0.0
18/02:30am 18.0 11.2 14.7 81 1.9 W 44 57 24 31 1006.8 - 0.0
18/02:04am 18.6 12.6 14.5 77 2.4 W 39 57 21 31 1007.0 - 0.0
18/02:00am 18.7 11.8 14.4 76 2.5 W 44 61 24 33 1007.3 - 0.0
18/01:30am 19.7 12.8 13.9 69 3.3 W 43 67 23 36 1006.9 - 0.0
18/01:23am 20.0 13.4 13.7 67 3.6 W 41 72 22 39 1006.9 - 0.0
18/01:21am 20.0 13.4 13.7 67 3.6 W 41 72 22 39 1007.0 - 0.0
18/01:00am 20.7 10.3 12.7 60 4.5 W 59 89 32 48 1006.6 - 0.0
18/12:55am 21.1 12.4 12.5 58 4.9 W 50 80 27 43 1006.6 - 0.0
18/12:30am 21.6 14.5 12.2 55 5.3 W 41 59 22 32 1006.8 - 0.0
18/12:05am 21.8 15.0 12.1 54 5.5 W 39 59 21 32 1007.5 - 0.0
18/12:00am 21.5 15.0 11.8 54 5.5 W 37 50 20 27 1007.3 1007.1 0.0
 
Date/Time
EDT
Temp
°C
App
Temp
°C
Dew
Point
°C
Rel
Hum
%
Delta-T
°C
Wind Press
QNH
hPa
Press
MSL
hPa
Rain since
9am
mm
Dir  Spd
km/h
Gust
km/h
Spd
kts
Gust
kts
17/11:30pm 21.1 15.3 11.4 54 5.4 WNW 33 48 18 26 1007.9 - 0.0
17/11:00pm 20.4 15.7 11.9 58 4.8 WNW 28 46 15 25 1008.1 - 0.0
17/10:30pm 20.9 15.5 12.1 57 5.0 W 32 50 17 27 1008.3 - 0.0
17/10:10pm 21.6 15.2 10.7 50 6.0 W 35 54 19 29 1007.8 - 0.0
17/10:00pm 21.4 14.1 11.7 54 5.4 W 41 56 22 30 1007.3 - 0.0
17/09:30pm 21.5 14.8 12.4 56 5.2 W 39 56 21 30 1006.3 - 0.0
17/09:14pm 22.1 14.8 11.5 51 5.9 W 41 59 22 32 1005.8 - 0.0
17/09:00pm 22.4 15.8 11.2 49 6.3 W 37 52 20 28 1005.7 1005.4 0.0

Other Formats:

Comma delimited format used in spreadsheet applications
http://www.bom.gov.au/fwo/IDV60801/IDV60801.94893.axf

JavaScript Object Notation format (JSON) in row-major order
http://www.bom.gov.au/fwo/IDV60801/IDV60801.94893.json